createdAt,value
2023-04-23T00:00:19.230Z,20.63
2023-04-23T00:02:22.892Z,20.61
2023-04-23T00:04:26.690Z,20.60
2023-04-23T00:06:37.887Z,20.59
2023-04-23T00:08:49.979Z,20.55
2023-04-23T00:10:52.316Z,20.52
2023-04-23T00:12:57.413Z,20.47
2023-04-23T00:15:02.153Z,20.45
2023-04-23T00:17:05.412Z,20.42
2023-04-23T00:19:06.927Z,20.39
2023-04-23T00:21:09.222Z,20.38
2023-04-23T00:23:14.691Z,20.32
2023-04-23T00:25:16.253Z,20.32
2023-04-23T00:27:18.293Z,20.31
2023-04-23T00:29:19.850Z,20.31
2023-04-23T00:31:22.745Z,20.27
2023-04-23T00:33:24.426Z,20.26
2023-04-23T00:35:30.274Z,20.23
2023-04-23T00:37:33.322Z,20.22
2023-04-23T00:39:37.517Z,20.16
2023-04-23T00:41:41.541Z,20.12
2023-04-23T00:43:45.870Z,20.07
2023-04-23T00:45:48.475Z,20.04
2023-04-23T00:47:54.106Z,20.04
2023-04-23T00:49:58.104Z,20.03
2023-04-23T00:52:00.725Z,20.03
2023-04-23T00:54:08.561Z,20.00
2023-04-23T00:56:10.641Z,19.93
2023-04-23T00:58:12.217Z,19.92
2023-04-23T01:00:20.552Z,19.91
2023-04-23T01:02:28.244Z,19.90
2023-04-23T01:04:31.682Z,19.90
2023-04-23T01:06:34.449Z,19.88
2023-04-23T01:08:38.106Z,19.83
2023-04-23T01:10:40.186Z,19.80
2023-04-23T01:12:41.972Z,19.79
2023-04-23T01:14:46.437Z,19.78
2023-04-23T01:16:48.227Z,19.73
2023-04-23T01:18:54.878Z,19.70
2023-04-23T01:20:56.531Z,19.70
2023-04-23T01:23:01.472Z,19.68
2023-04-23T01:25:04.056Z,19.62
2023-04-23T01:27:06.179Z,19.60
2023-04-23T01:29:08.100Z,19.56
2023-04-23T01:31:09.731Z,19.52
2023-04-23T01:33:15.198Z,19.49
2023-04-23T01:35:16.985Z,19.43
2023-04-23T01:37:18.947Z,19.42
2023-04-23T01:39:23.162Z,19.44
2023-04-23T01:41:25.171Z,19.35
2023-04-23T01:43:27.100Z,19.36
2023-04-23T01:45:30.676Z,19.30
2023-04-23T01:47:34.209Z,19.31
2023-04-23T01:49:36.061Z,19.28
2023-04-23T01:51:37.632Z,19.27
2023-04-23T01:53:39.152Z,19.24
2023-04-23T01:55:43.038Z,19.25
2023-04-23T01:57:45.389Z,19.21
2023-04-23T01:59:46.979Z,19.17
2023-04-23T02:01:49.960Z,19.16
2023-04-23T02:03:52.067Z,19.14
2023-04-23T02:05:55.201Z,19.14
2023-04-23T02:07:57.000Z,19.12
2023-04-23T02:09:59.154Z,19.11
2023-04-23T02:12:12.332Z,19.08
2023-04-23T02:14:14.265Z,19.05
2023-04-23T02:16:16.415Z,19.03
2023-04-23T02:18:18.013Z,19.02
2023-04-23T02:20:20.598Z,19.01
2023-04-23T02:22:25.094Z,19.02
2023-04-23T02:24:26.620Z,18.96
2023-04-23T02:26:31.072Z,18.97
2023-04-23T02:28:32.931Z,18.97
2023-04-23T02:30:35.730Z,18.98
2023-04-23T02:32:38.184Z,18.97
2023-04-23T02:34:40.412Z,18.96
2023-04-23T02:36:42.400Z,18.96
2023-04-23T02:38:45.615Z,18.96
2023-04-23T02:40:47.141Z,18.95
2023-04-23T02:42:49.903Z,18.90
2023-04-23T02:44:51.519Z,18.89
2023-04-23T02:46:53.585Z,18.89
2023-04-23T02:48:55.095Z,18.89
2023-04-23T02:50:57.085Z,18.89
2023-04-23T02:52:58.781Z,18.88
2023-04-23T02:55:01.923Z,18.88
2023-04-23T02:57:05.100Z,18.84
2023-04-23T02:59:09.101Z,18.83
2023-04-23T03:01:11.549Z,18.83
2023-04-23T03:03:15.416Z,18.82
2023-04-23T03:05:17.208Z,18.80
2023-04-23T03:07:19.146Z,18.78
2023-04-23T03:09:20.755Z,18.77
2023-04-23T03:11:22.672Z,18.75
2023-04-23T03:13:29.126Z,18.71
2023-04-23T03:15:38.382Z,18.71
2023-04-23T03:17:40.148Z,18.68
2023-04-23T03:19:42.041Z,18.68
2023-04-23T03:21:43.805Z,18.69
2023-04-23T03:23:47.655Z,18.68
2023-04-23T03:25:49.366Z,18.65
2023-04-23T03:27:51.261Z,18.65
2023-04-23T03:29:53.615Z,18.62
2023-04-23T03:31:55.493Z,18.62
2023-04-23T03:33:57.095Z,18.61
2023-04-23T03:36:05.787Z,18.61
2023-04-23T03:38:08.129Z,18.61
2023-04-23T03:40:14.930Z,18.59
2023-04-23T03:42:18.196Z,18.59
2023-04-23T03:44:22.253Z,18.59
2023-04-23T03:46:25.116Z,18.56
2023-04-23T03:48:27.363Z,18.58
2023-04-23T03:50:29.876Z,18.56
2023-04-23T03:52:46.633Z,18.54
2023-04-23T03:54:57.916Z,18.53
2023-04-23T03:57:05.105Z,18.51
2023-04-23T03:59:16.316Z,18.50
2023-04-23T04:01:19.189Z,18.49
2023-04-23T04:03:23.648Z,18.50
2023-04-23T04:05:25.406Z,18.49
2023-04-23T04:07:28.841Z,18.48
2023-04-23T04:09:30.952Z,18.46
2023-04-23T04:11:36.995Z,18.45
2023-04-23T04:13:38.595Z,18.44
2023-04-23T04:15:42.942Z,18.42
2023-04-23T04:17:46.083Z,18.40
2023-04-23T04:19:51.219Z,18.39
2023-04-23T04:21:57.804Z,18.37
2023-04-23T04:24:01.671Z,18.36
2023-04-23T04:26:03.300Z,18.34
2023-04-23T04:28:09.314Z,18.33
2023-04-23T04:30:11.221Z,18.34
2023-04-23T04:32:14.036Z,18.33
2023-04-23T04:34:15.768Z,18.33
2023-04-23T04:36:18.308Z,18.32
2023-04-23T04:38:26.614Z,18.31
2023-04-23T04:40:28.731Z,18.32
2023-04-23T04:42:30.313Z,18.30
2023-04-23T04:44:37.519Z,18.29
2023-04-23T04:46:41.523Z,18.27
2023-04-23T04:48:43.565Z,18.27
2023-04-23T04:50:48.189Z,18.26
2023-04-23T04:52:49.645Z,18.25
2023-04-23T04:54:51.123Z,18.23
2023-04-23T04:56:52.702Z,18.23
2023-04-23T04:58:54.170Z,18.22
2023-04-23T05:00:58.285Z,18.21
2023-04-23T05:03:00.148Z,18.19
2023-04-23T05:05:01.790Z,18.20
2023-04-23T05:07:03.548Z,18.21
2023-04-23T05:09:05.203Z,18.22
2023-04-23T05:11:09.891Z,18.18
2023-04-23T05:13:14.202Z,18.16
2023-04-23T05:15:18.774Z,18.15
2023-04-23T05:17:20.481Z,18.16
2023-04-23T05:19:22.238Z,18.17
2023-04-23T05:21:27.728Z,18.17
2023-04-23T05:23:29.265Z,18.18
2023-04-23T05:25:33.369Z,18.19
2023-04-23T05:27:35.729Z,18.19
2023-04-23T05:29:37.217Z,18.21
2023-04-23T05:31:41.258Z,18.21
2023-04-23T05:33:50.462Z,18.21
2023-04-23T05:35:52.637Z,18.21
2023-04-23T05:37:54.218Z,18.23
2023-04-23T05:39:56.023Z,18.22
2023-04-23T05:41:58.466Z,18.19
2023-04-23T05:43:59.996Z,18.19
2023-04-23T05:46:02.925Z,18.21
2023-04-23T05:48:04.520Z,18.20
2023-04-23T05:50:07.255Z,18.21
2023-04-23T05:52:10.143Z,18.18
2023-04-23T05:54:13.937Z,18.19
2023-04-23T05:56:18.655Z,18.16
2023-04-23T05:58:22.322Z,18.19
2023-04-23T06:00:23.909Z,18.17
2023-04-23T06:02:25.757Z,18.17
2023-04-23T06:04:27.786Z,18.17
2023-04-23T06:06:32.489Z,18.16
2023-04-23T06:08:34.267Z,18.15
2023-04-23T06:10:35.936Z,18.18
2023-04-23T06:12:39.296Z,18.17
2023-04-23T06:14:40.932Z,18.19
2023-04-23T06:16:51.229Z,18.19
2023-04-23T06:18:53.167Z,18.19
2023-04-23T06:20:59.777Z,18.18
2023-04-23T06:23:04.095Z,18.19
2023-04-23T06:25:06.254Z,18.18
2023-04-23T06:27:08.117Z,18.22
2023-04-23T06:29:13.839Z,18.20
2023-04-23T06:31:26.361Z,18.21
2023-04-23T06:33:28.040Z,18.23
2023-04-23T06:35:30.307Z,18.25
2023-04-23T06:37:31.891Z,18.28
2023-04-23T06:39:33.414Z,18.31
2023-04-23T06:41:43.604Z,18.33
2023-04-23T06:43:58.817Z,18.33
2023-04-23T06:46:17.491Z,18.35
2023-04-23T06:48:19.266Z,18.36
2023-04-23T06:50:21.138Z,18.37
2023-04-23T06:52:28.207Z,18.37
2023-04-23T06:54:29.708Z,18.37
2023-04-23T06:56:31.242Z,18.38
2023-04-23T06:58:32.797Z,18.38
2023-04-23T07:00:37.102Z,18.41
2023-04-23T07:02:39.819Z,18.42
2023-04-23T07:04:42.215Z,18.40
2023-04-23T07:06:45.012Z,18.45
2023-04-23T07:08:46.653Z,18.47
2023-04-23T07:10:48.817Z,18.47
2023-04-23T07:12:50.372Z,18.48
2023-04-23T07:14:54.825Z,18.49
2023-04-23T07:16:56.516Z,18.52
2023-04-23T07:18:58.334Z,18.57
2023-04-23T07:21:02.963Z,18.59
2023-04-23T07:23:05.289Z,18.62
2023-04-23T07:25:10.574Z,18.65
2023-04-23T07:27:12.155Z,18.69
2023-04-23T07:29:14.387Z,18.71
2023-04-23T07:31:16.173Z,18.75
2023-04-23T07:33:18.172Z,18.76
2023-04-23T07:35:19.949Z,18.81
2023-04-23T07:37:22.221Z,18.86
2023-04-23T07:39:23.696Z,18.92
2023-04-23T07:41:25.753Z,18.97
2023-04-23T07:43:27.394Z,19.06
2023-04-23T07:45:29.753Z,19.11
2023-04-23T07:47:31.405Z,19.17
2023-04-23T07:49:35.743Z,19.25
2023-04-23T07:51:43.331Z,19.30
2023-04-23T07:53:47.030Z,19.39
2023-04-23T07:55:51.034Z,19.45
2023-04-23T07:57:52.544Z,19.55
2023-04-23T07:59:54.041Z,19.63
2023-04-23T08:02:01.007Z,19.74
2023-04-23T08:04:03.209Z,19.83
2023-04-23T08:06:05.790Z,19.93
2023-04-23T08:08:08.396Z,20.04
2023-04-23T08:10:12.760Z,20.15
2023-04-23T08:12:14.337Z,20.28
2023-04-23T08:14:15.975Z,20.41
2023-04-23T08:16:17.503Z,20.54
2023-04-23T08:18:21.871Z,20.68
2023-04-23T08:20:23.502Z,20.82
2023-04-23T08:22:25.164Z,20.99
2023-04-23T08:24:27.287Z,21.14
2023-04-23T08:26:28.940Z,21.32
2023-04-23T08:28:33.138Z,21.51
2023-04-23T08:30:36.970Z,21.72
2023-04-23T08:32:44.586Z,21.86
2023-04-23T08:34:48.248Z,21.98
2023-04-23T08:36:50.079Z,22.07
2023-04-23T08:38:51.571Z,22.13
2023-04-23T08:40:58.614Z,22.18
2023-04-23T08:43:10.685Z,22.21
2023-04-23T08:45:13.362Z,22.22
2023-04-23T08:47:19.117Z,22.25
2023-04-23T08:49:20.886Z,22.28
2023-04-23T08:51:28.731Z,22.32
2023-04-23T08:53:32.589Z,22.38
2023-04-23T08:55:35.587Z,22.48
2023-04-23T08:57:39.698Z,22.57
2023-04-23T08:59:41.967Z,22.66
2023-04-23T09:01:44.307Z,22.75
2023-04-23T09:03:47.054Z,22.87
2023-04-23T09:05:54.296Z,23.01
2023-04-23T09:07:57.726Z,23.15
2023-04-23T09:10:02.536Z,23.32
2023-04-23T09:12:05.571Z,23.48
2023-04-23T09:14:08.177Z,23.64
2023-04-23T09:16:11.513Z,23.81
2023-04-23T09:18:17.047Z,23.97
2023-04-23T09:20:18.720Z,24.15
2023-04-23T09:22:39.225Z,24.31
2023-04-23T09:24:44.029Z,24.48
2023-04-23T09:26:50.704Z,24.64
2023-04-23T09:28:52.738Z,24.79
2023-04-23T09:30:54.643Z,24.94
2023-04-23T09:32:56.237Z,25.10
2023-04-23T09:34:57.720Z,25.25
2023-04-23T09:37:00.273Z,25.39
2023-04-23T09:39:01.946Z,25.52
2023-04-23T09:41:26.594Z,25.66
2023-04-23T09:43:30.480Z,25.80
2023-04-23T09:45:32.930Z,25.95
2023-04-23T09:47:38.655Z,26.09
2023-04-23T09:49:50.407Z,26.25
2023-04-23T09:51:52.173Z,26.41
2023-04-23T09:53:57.553Z,26.56
2023-04-23T09:56:02.207Z,26.70
2023-04-23T09:58:09.649Z,26.85
2023-04-23T10:00:17.286Z,27.00
2023-04-23T10:02:19.852Z,27.16
2023-04-23T10:04:24.254Z,27.30
2023-04-23T10:06:42.248Z,27.45
2023-04-23T10:08:49.305Z,27.60
2023-04-23T10:11:03.084Z,27.73
2023-04-23T10:13:11.630Z,27.90
2023-04-23T10:15:14.602Z,28.04
2023-04-23T10:17:17.074Z,28.15
2023-04-23T10:19:24.349Z,28.20
2023-04-23T10:21:33.967Z,28.22
2023-04-23T10:23:41.226Z,28.22
2023-04-23T10:25:43.418Z,28.19
2023-04-23T10:27:53.813Z,28.15
2023-04-23T10:29:59.925Z,28.13
2023-04-23T10:32:07.272Z,28.10
2023-04-23T10:34:10.910Z,28.09
2023-04-23T10:36:12.924Z,28.04
2023-04-23T10:38:15.860Z,28.00
2023-04-23T10:40:31.984Z,27.96
2023-04-23T10:42:33.694Z,27.93
2023-04-23T10:46:54.776Z,27.88
2023-04-23T10:49:19.099Z,27.85
2023-04-23T10:53:48.060Z,27.79
2023-04-23T10:56:06.791Z,27.68
2023-04-23T10:58:10.832Z,27.64
2023-04-23T11:00:14.749Z,27.56
2023-04-23T11:02:19.540Z,27.51
2023-04-23T11:04:24.269Z,27.40
2023-04-23T11:06:47.826Z,27.33
2023-04-23T11:08:53.890Z,27.30
2023-04-23T11:11:00.129Z,27.22
2023-04-23T11:13:24.659Z,27.13
2023-04-23T11:15:26.359Z,27.10
2023-04-23T11:17:34.087Z,27.06
2023-04-23T11:19:39.931Z,27.02
2023-04-23T11:22:10.685Z,26.93
2023-04-23T11:24:13.091Z,26.87
2023-04-23T11:26:21.502Z,26.77
2023-04-23T11:28:23.431Z,26.70
2023-04-23T11:30:30.726Z,26.63
2023-04-23T11:32:32.494Z,26.54
2023-04-23T11:34:34.134Z,26.48
2023-04-23T11:36:36.201Z,26.39
2023-04-23T11:38:39.713Z,26.28
2023-04-23T11:40:48.077Z,26.21
2023-04-23T11:42:51.333Z,26.14
2023-04-23T11:44:52.842Z,26.03
2023-04-23T11:48:56.645Z,25.91
2023-04-23T11:50:58.120Z,25.84
2023-04-23T11:53:08.075Z,25.74
2023-04-23T11:55:09.695Z,25.69
2023-04-23T11:57:11.863Z,25.64
2023-04-23T11:59:13.433Z,25.57
2023-04-23T12:01:14.963Z,25.51
2023-04-23T12:03:16.891Z,25.46
2023-04-23T12:05:29.595Z,25.39
2023-04-23T12:07:34.517Z,25.37
2023-04-23T12:09:36.716Z,25.34
2023-04-23T12:11:39.095Z,25.29
2023-04-23T12:13:47.604Z,25.20
2023-04-23T12:15:54.323Z,25.15
2023-04-23T12:18:11.802Z,25.10
2023-04-23T12:20:21.039Z,25.05
2023-04-23T12:22:28.308Z,25.01
2023-04-23T12:25:02.286Z,24.95
2023-04-23T12:27:03.926Z,24.94
2023-04-23T12:29:07.789Z,24.94
2023-04-23T12:31:09.445Z,24.93
2023-04-23T12:33:11.924Z,24.94
2023-04-23T12:35:14.033Z,24.96
2023-04-23T12:37:17.895Z,24.98
2023-04-23T12:39:19.846Z,24.97
2023-04-23T12:41:21.384Z,25.00
2023-04-23T12:43:24.549Z,25.04
2023-04-23T12:45:26.044Z,25.05
2023-04-23T12:47:29.639Z,25.09
2023-04-23T12:49:32.967Z,25.10
2023-04-23T12:51:34.536Z,25.10
2023-04-23T12:53:36.083Z,25.08
2023-04-23T12:55:39.433Z,25.10
2023-04-23T12:57:41.145Z,25.14
2023-04-23T12:59:42.957Z,25.22
2023-04-23T13:01:44.794Z,25.30
2023-04-23T13:03:46.445Z,25.37
2023-04-23T13:05:48.141Z,25.43
2023-04-23T13:07:49.720Z,25.48
2023-04-23T13:09:51.397Z,25.52
2023-04-23T13:11:52.903Z,25.56
2023-04-23T13:13:54.438Z,25.62
2023-04-23T13:15:58.954Z,25.67
2023-04-23T13:18:00.490Z,25.73
2023-04-23T13:20:02.138Z,25.78
2023-04-23T13:22:04.852Z,25.81
2023-04-23T13:24:09.440Z,25.83
2023-04-23T13:26:10.943Z,25.88
2023-04-23T13:28:12.458Z,25.92
2023-04-23T13:30:14.179Z,25.91
2023-04-23T13:32:16.449Z,25.90
2023-04-23T13:34:17.951Z,25.92
2023-04-23T13:36:19.851Z,25.96
2023-04-23T13:38:30.858Z,26.00
2023-04-23T13:40:32.423Z,26.05
2023-04-23T13:42:34.383Z,26.12
2023-04-23T13:44:36.047Z,26.22
2023-04-23T13:46:37.672Z,26.29
2023-04-23T13:48:39.304Z,26.36
2023-04-23T13:50:41.780Z,26.45
2023-04-23T13:52:45.765Z,26.54
2023-04-23T13:54:50.190Z,26.62
2023-04-23T13:57:00.367Z,26.72
2023-04-23T13:59:18.936Z,26.81
2023-04-23T14:01:30.945Z,26.88
2023-04-23T14:03:36.013Z,26.91
2023-04-23T14:05:40.497Z,26.93
2023-04-23T14:07:42.184Z,26.91
2023-04-23T14:09:45.841Z,26.89
2023-04-23T14:11:53.190Z,26.87
2023-04-23T14:13:57.581Z,26.84
2023-04-23T14:16:03.662Z,26.83
2023-04-23T14:18:05.779Z,26.81
2023-04-23T14:20:07.945Z,26.81
2023-04-23T14:22:09.468Z,26.80
2023-04-23T14:24:27.960Z,26.77
2023-04-23T14:28:49.939Z,26.71
2023-04-23T14:30:57.574Z,26.71
2023-04-23T14:32:59.492Z,26.70
2023-04-23T14:35:01.015Z,26.70
2023-04-23T14:37:03.742Z,26.69
2023-04-23T14:39:05.485Z,26.71
2023-04-23T14:41:07.044Z,26.68
2023-04-23T14:43:15.484Z,26.67
2023-04-23T14:45:18.998Z,26.62
2023-04-23T14:47:20.547Z,26.61
2023-04-23T14:49:22.114Z,26.61
2023-04-23T14:51:23.914Z,26.60
2023-04-23T14:53:25.654Z,26.56
2023-04-23T14:55:34.672Z,26.52
2023-04-23T14:57:36.257Z,26.46
2023-04-23T14:59:37.914Z,26.39
2023-04-23T15:01:39.462Z,26.33
2023-04-23T15:03:41.490Z,26.29
2023-04-23T15:05:43.224Z,26.25
2023-04-23T15:07:44.796Z,26.24
2023-04-23T15:09:46.372Z,26.19
2023-04-23T15:11:48.980Z,26.14
2023-04-23T15:13:56.392Z,26.07
2023-04-23T15:16:03.282Z,26.04
2023-04-23T15:18:05.658Z,26.00
2023-04-23T15:20:07.942Z,25.94
2023-04-23T15:22:09.666Z,25.92
2023-04-23T15:24:11.414Z,25.86
2023-04-23T15:26:13.084Z,25.81
2023-04-23T15:28:14.877Z,25.74
2023-04-23T15:30:16.361Z,25.69
2023-04-23T15:32:22.626Z,25.67
2023-04-23T15:34:24.431Z,25.62
2023-04-23T15:36:25.924Z,25.56
2023-04-23T15:38:27.871Z,25.54
2023-04-23T15:40:33.478Z,25.49
2023-04-23T15:42:34.950Z,25.42
2023-04-23T15:44:38.809Z,25.37
2023-04-23T15:46:41.077Z,25.35
2023-04-23T15:48:42.789Z,25.31
2023-04-23T15:50:45.033Z,25.27
2023-04-23T15:52:47.589Z,25.23
2023-04-23T15:54:50.086Z,25.19
2023-04-23T15:56:51.552Z,25.18
2023-04-23T15:58:53.063Z,25.14
2023-04-23T16:00:54.878Z,25.09
2023-04-23T16:03:01.156Z,25.04
2023-04-23T16:05:02.992Z,24.99
2023-04-23T16:07:04.546Z,24.94
2023-04-23T16:09:11.286Z,24.89
2023-04-23T16:11:14.726Z,24.83
2023-04-23T16:13:16.260Z,24.79
2023-04-23T16:15:17.757Z,24.76
2023-04-23T16:17:19.940Z,24.72
2023-04-23T16:19:21.532Z,24.67
2023-04-23T16:21:24.785Z,24.63
2023-04-23T16:23:26.236Z,24.61
2023-04-23T16:25:27.875Z,24.57
2023-04-23T16:27:32.405Z,24.55
2023-04-23T16:29:36.152Z,24.51
2023-04-23T16:31:37.916Z,24.48
2023-04-23T16:33:40.499Z,24.44
2023-04-23T16:35:41.957Z,24.40
2023-04-23T16:37:43.564Z,24.38
2023-04-23T16:39:45.038Z,24.35
2023-04-23T16:41:47.044Z,24.32
2023-04-23T16:43:48.837Z,24.28
2023-04-23T16:45:52.880Z,24.23
2023-04-23T16:47:54.416Z,24.18
2023-04-23T16:49:56.044Z,24.15
2023-04-23T16:51:57.608Z,24.14
2023-04-23T16:53:59.161Z,24.13
2023-04-23T16:56:04.622Z,24.10
2023-04-23T16:58:06.481Z,24.07
2023-04-23T17:00:08.525Z,24.05
2023-04-23T17:02:10.178Z,24.00
2023-04-23T17:04:12.107Z,23.98
2023-04-23T17:06:30.771Z,23.95
2023-04-23T17:08:49.464Z,23.93
2023-04-23T17:11:08.110Z,23.91
2023-04-23T17:13:09.900Z,23.88
2023-04-23T17:15:16.027Z,23.85
2023-04-23T17:17:17.693Z,23.82
2023-04-23T17:19:19.342Z,23.80
2023-04-23T17:21:21.106Z,23.78
2023-04-23T17:23:22.702Z,23.74
2023-04-23T17:25:24.187Z,23.72
2023-04-23T17:27:31.895Z,23.68
2023-04-23T17:29:33.333Z,23.64
2023-04-23T17:31:36.107Z,23.62
2023-04-23T17:33:39.465Z,23.58
2023-04-23T17:35:41.233Z,23.55
2023-04-23T17:37:42.942Z,23.52
2023-04-23T17:39:44.475Z,23.50
2023-04-23T17:41:48.941Z,23.46
2023-04-23T17:43:50.539Z,23.44
2023-04-23T17:45:52.220Z,23.42
2023-04-23T17:47:54.117Z,23.40
2023-04-23T17:49:55.792Z,23.36
2023-04-23T17:51:57.734Z,23.35
2023-04-23T17:54:00.337Z,23.30
2023-04-23T17:56:03.393Z,23.27
2023-04-23T17:58:09.116Z,23.22
2023-04-23T18:00:12.517Z,23.19
2023-04-23T18:02:16.896Z,23.15
2023-04-23T18:04:21.777Z,23.11
2023-04-23T18:06:23.624Z,23.07
2023-04-23T18:08:26.294Z,23.01
2023-04-23T18:10:29.098Z,22.97
2023-04-23T18:12:33.733Z,22.94
2023-04-23T18:14:37.481Z,22.89
2023-04-23T18:16:39.021Z,22.87
2023-04-23T18:18:40.579Z,22.83
2023-04-23T18:20:43.888Z,22.78
2023-04-23T18:22:45.372Z,22.75
2023-04-23T18:24:47.536Z,22.71
2023-04-23T18:26:52.141Z,22.68
2023-04-23T18:28:53.944Z,22.63
2023-04-23T18:31:02.574Z,22.59
2023-04-23T18:33:35.479Z,22.54
2023-04-23T18:35:37.143Z,22.47
2023-04-23T18:37:53.630Z,22.43
2023-04-23T18:39:58.548Z,22.41
2023-04-23T18:42:11.815Z,22.38
2023-04-23T18:44:14.196Z,22.36
2023-04-23T18:46:16.256Z,22.30
2023-04-23T18:48:21.649Z,22.28
2023-04-23T18:50:41.660Z,22.23
2023-04-23T18:52:43.254Z,22.21
2023-04-23T18:54:46.948Z,22.18
2023-04-23T18:56:49.636Z,22.18
2023-04-23T18:58:54.063Z,22.13
2023-04-23T19:00:56.403Z,22.11
2023-04-23T19:02:58.025Z,22.07
2023-04-23T19:04:59.683Z,22.05
2023-04-23T19:07:01.320Z,22.02
2023-04-23T19:09:05.401Z,21.99
2023-04-23T19:11:08.878Z,21.95
2023-04-23T19:13:13.195Z,21.90
2023-04-23T19:15:15.659Z,21.84
2023-04-23T19:17:18.751Z,21.79
2023-04-23T19:19:20.607Z,21.71
2023-04-23T19:21:22.377Z,21.64
2023-04-23T19:23:23.904Z,21.53
2023-04-23T19:25:25.464Z,21.48
2023-04-23T19:27:26.969Z,21.42
2023-04-23T19:29:28.533Z,21.36
2023-04-23T19:31:32.365Z,21.32
2023-04-23T19:33:34.630Z,21.24
2023-04-23T19:35:41.730Z,21.19
2023-04-23T19:37:46.873Z,21.14
2023-04-23T19:39:48.388Z,21.09
2023-04-23T19:41:50.306Z,21.01
2023-04-23T19:43:51.985Z,20.96
2023-04-23T19:45:58.646Z,20.91
2023-04-23T19:48:00.557Z,20.85
2023-04-23T19:50:02.029Z,20.80
2023-04-23T19:52:04.273Z,20.76
2023-04-23T19:54:06.349Z,20.70
2023-04-23T19:56:13.904Z,20.67
2023-04-23T19:58:18.975Z,20.60
2023-04-23T20:00:23.637Z,20.54
2023-04-23T20:02:25.146Z,20.49
2023-04-23T20:04:26.747Z,20.45
2023-04-23T20:06:29.186Z,20.40
2023-04-23T20:08:41.485Z,20.36
2023-04-23T20:10:43.167Z,20.32
2023-04-23T20:12:44.748Z,20.27
2023-04-23T20:14:46.352Z,20.22
2023-04-23T20:16:47.976Z,20.16
2023-04-23T20:18:56.134Z,20.11
2023-04-23T20:20:57.677Z,20.06
2023-04-23T20:22:59.279Z,20.04
2023-04-23T20:25:01.924Z,19.99
2023-04-23T20:27:03.748Z,19.94
2023-04-23T20:29:05.890Z,19.92
2023-04-23T20:31:10.608Z,19.89
2023-04-23T20:33:18.073Z,19.83
2023-04-23T20:35:19.777Z,19.77
2023-04-23T20:37:21.612Z,19.75
2023-04-23T20:39:24.289Z,19.71
2023-04-23T20:41:26.878Z,19.68
2023-04-23T20:43:42.820Z,19.62
2023-04-23T20:45:46.434Z,19.57
2023-04-23T20:47:48.949Z,19.55
2023-04-23T20:49:50.774Z,19.52
2023-04-23T20:51:53.133Z,19.51
2023-04-23T20:53:57.498Z,19.46
2023-04-23T20:56:00.839Z,19.44
2023-04-23T20:58:02.407Z,19.42
2023-04-23T21:00:11.107Z,19.38
2023-04-23T21:02:14.999Z,19.33
2023-04-23T21:04:17.316Z,19.31
2023-04-23T21:06:20.864Z,19.28
2023-04-23T21:08:22.301Z,19.25
2023-04-23T21:10:24.103Z,19.22
2023-04-23T21:12:25.637Z,19.20
2023-04-23T21:14:35.887Z,19.15
2023-04-23T21:16:38.467Z,19.12
2023-04-23T21:18:41.129Z,19.09
2023-04-23T21:20:42.736Z,19.06
2023-04-23T21:22:44.233Z,19.02
2023-04-23T21:24:45.801Z,18.98
2023-04-23T21:26:47.278Z,18.97
2023-04-23T21:28:52.944Z,18.92
2023-04-23T21:30:57.607Z,18.90
2023-04-23T21:32:59.134Z,18.86
2023-04-23T21:35:03.930Z,18.83
2023-04-23T21:37:05.470Z,18.80
2023-04-23T21:39:08.016Z,18.76
2023-04-23T21:41:09.556Z,18.73
2023-04-23T21:43:11.804Z,18.69
2023-04-23T21:45:13.325Z,18.67
2023-04-23T21:47:15.020Z,18.62
2023-04-23T21:49:17.335Z,18.59
2023-04-23T21:51:23.109Z,18.55
2023-04-23T21:53:25.102Z,18.51
2023-04-23T21:55:30.351Z,18.49
2023-04-23T21:57:34.868Z,18.45
2023-04-23T21:59:37.592Z,18.43
2023-04-23T22:01:39.366Z,18.38
2023-04-23T22:03:43.427Z,18.37
2023-04-23T22:05:45.749Z,18.35
2023-04-23T22:07:49.216Z,18.32
2023-04-23T22:09:55.929Z,18.28
2023-04-23T22:12:01.977Z,18.26
2023-04-23T22:14:06.298Z,18.26
2023-04-23T22:16:20.312Z,18.24
2023-04-23T22:18:32.278Z,18.21
2023-04-23T22:20:33.880Z,18.20
2023-04-23T22:22:36.401Z,18.19
2023-04-23T22:24:37.908Z,18.17
2023-04-23T22:26:42.417Z,18.13
2023-04-23T22:28:44.916Z,18.12
2023-04-23T22:30:46.536Z,18.11
2023-04-23T22:32:48.183Z,18.10
2023-04-23T22:34:51.885Z,18.09
2023-04-23T22:36:53.736Z,18.07
2023-04-23T22:38:56.327Z,18.06
2023-04-23T22:40:57.881Z,18.06
2023-04-23T22:42:59.341Z,18.03
2023-04-23T22:45:03.515Z,18.03
2023-04-23T22:47:05.412Z,17.99
2023-04-23T22:49:11.106Z,17.98
2023-04-23T22:51:16.989Z,17.96
2023-04-23T22:53:24.664Z,17.93
2023-04-23T22:55:26.327Z,17.91
2023-04-23T22:57:30.591Z,17.92
2023-04-23T22:59:32.501Z,17.90
2023-04-23T23:01:34.508Z,17.88
2023-04-23T23:03:36.638Z,17.87
2023-04-23T23:05:38.308Z,17.86
2023-04-23T23:07:39.795Z,17.85
2023-04-23T23:09:41.723Z,17.82
2023-04-23T23:11:43.872Z,17.82
2023-04-23T23:13:45.401Z,17.78
2023-04-23T23:15:46.928Z,17.77
2023-04-23T23:17:49.548Z,17.77
2023-04-23T23:19:51.058Z,17.76
2023-04-23T23:21:52.746Z,17.76
2023-04-23T23:23:54.554Z,17.73
2023-04-23T23:25:58.242Z,17.71
2023-04-23T23:28:04.526Z,17.68
2023-04-23T23:30:09.478Z,17.67
2023-04-23T23:32:11.056Z,17.64
2023-04-23T23:34:12.714Z,17.64
2023-04-23T23:36:19.681Z,17.61
2023-04-23T23:38:24.031Z,17.58
2023-04-23T23:40:31.613Z,17.56
2023-04-23T23:42:36.218Z,17.57
2023-04-23T23:44:37.926Z,17.53
2023-04-23T23:46:43.225Z,17.50
2023-04-23T23:48:44.948Z,17.48
2023-04-23T23:50:46.468Z,17.48
2023-04-23T23:52:47.908Z,17.47
2023-04-23T23:54:49.369Z,17.48
2023-04-23T23:56:52.951Z,17.47
2023-04-23T23:58:57.330Z,17.46
